createdAt,value
2018-05-26T00:02:22.559Z,93.40
2018-05-26T00:06:15.763Z,93.40
2018-05-26T00:10:08.908Z,93.40
2018-05-26T00:14:02.459Z,93.50
2018-05-26T00:17:56.065Z,93.50
2018-05-26T00:21:49.548Z,93.60
2018-05-26T00:25:42.807Z,93.70
2018-05-26T00:29:36.958Z,93.90
2018-05-26T00:33:30.433Z,94.10
2018-05-26T00:37:23.609Z,94.30
2018-05-26T00:41:16.821Z,94.60
2018-05-26T00:45:09.740Z,95.00
2018-05-26T00:49:03.637Z,95.70
2018-05-26T00:52:57.609Z,95.40
2018-05-26T00:56:50.812Z,95.40
2018-05-26T01:00:44.848Z,95.40
2018-05-26T01:04:38.026Z,95.40
2018-05-26T01:08:31.540Z,95.70
2018-05-26T01:12:25.834Z,95.30
2018-05-26T01:16:19.890Z,95.50
2018-05-26T01:20:14.356Z,95.70
2018-05-26T01:24:07.881Z,95.70
2018-05-26T01:28:00.997Z,95.70
2018-05-26T01:31:54.971Z,95.90
2018-05-26T01:35:48.178Z,95.90
2018-05-26T01:39:41.770Z,96.00
2018-05-26T01:43:34.982Z,96.10
2018-05-26T01:47:27.878Z,96.00
2018-05-26T01:51:23.648Z,95.90
2018-05-26T01:55:17.337Z,95.90
2018-05-26T01:59:12.031Z,95.90
2018-05-26T02:03:05.388Z,95.90
2018-05-26T02:06:59.297Z,95.80
2018-05-26T02:10:53.328Z,95.70
2018-05-26T02:14:46.491Z,95.60
2018-05-26T02:18:39.827Z,95.60
2018-05-26T02:22:34.898Z,95.70
2018-05-26T02:26:28.040Z,95.70
2018-05-26T02:30:22.090Z,95.70
2018-05-26T02:34:15.199Z,95.50
2018-05-26T02:38:08.463Z,95.30
2018-05-26T02:42:01.565Z,95.50
2018-05-26T02:45:55.730Z,95.70
2018-05-26T02:49:50.684Z,95.70
2018-05-26T02:53:43.836Z,95.60
2018-05-26T02:57:37.228Z,95.30
2018-05-26T03:01:31.282Z,95.30
2018-05-26T03:05:30.280Z,95.30
2018-05-26T03:09:29.202Z,95.20
2018-05-26T03:13:27.995Z,95.10
2018-05-26T03:17:21.389Z,95.10
2018-05-26T03:21:15.292Z,95.00
2018-05-26T03:25:10.705Z,95.00
2018-05-26T03:29:03.932Z,95.10
2018-05-26T03:32:57.904Z,95.20
2018-05-26T03:36:51.317Z,94.80
2018-05-26T03:40:44.736Z,94.80
2018-05-26T03:44:38.674Z,94.80
2018-05-26T03:48:31.383Z,94.80
2018-05-26T03:52:25.760Z,94.70
2018-05-26T03:56:33.907Z,94.70
2018-05-26T04:00:28.587Z,94.50
2018-05-26T04:04:22.109Z,94.30
2018-05-26T04:08:15.688Z,94.20
2018-05-26T04:12:08.804Z,94.00
2018-05-26T04:16:02.081Z,93.90
2018-05-26T04:19:55.947Z,93.70
2018-05-26T04:23:49.305Z,93.50
2018-05-26T04:27:42.399Z,93.30
2018-05-26T04:31:36.458Z,93.40
2018-05-26T04:35:29.813Z,93.40
2018-05-26T04:39:22.962Z,93.00
2018-05-26T04:43:16.013Z,90.80
2018-05-26T04:47:09.226Z,85.70
2018-05-26T04:51:18.400Z,74.60
2018-05-26T04:55:12.121Z,74.50
2018-05-26T04:59:05.343Z,70.70
2018-05-26T05:02:58.875Z,70.10
2018-05-26T05:06:54.575Z,76.90
2018-05-26T05:10:48.414Z,76.90
2018-05-26T05:14:41.993Z,80.40
2018-05-26T05:18:35.936Z,84.10
2018-05-26T05:22:29.038Z,83.40
2018-05-26T05:26:22.321Z,84.10
2018-05-26T05:30:15.506Z,85.80
2018-05-26T05:34:08.691Z,86.10
2018-05-26T05:38:01.839Z,84.60
2018-05-26T05:41:55.236Z,84.30
2018-05-26T05:45:48.392Z,84.40
2018-05-26T05:49:41.705Z,83.80
2018-05-26T05:53:36.479Z,82.80
2018-05-26T05:57:29.649Z,82.80
2018-05-26T06:01:22.830Z,82.20
2018-05-26T06:05:15.945Z,82.40
2018-05-26T06:09:09.122Z,83.60
2018-05-26T06:13:03.563Z,82.50
2018-05-26T06:16:57.485Z,82.70
2018-05-26T06:20:50.671Z,82.60
2018-05-26T06:24:44.091Z,82.20
2018-05-26T06:28:37.441Z,82.10
2018-05-26T06:32:31.950Z,81.30
2018-05-26T06:36:26.134Z,81.20
2018-05-26T06:40:20.092Z,80.80
2018-05-26T06:44:15.024Z,80.80
2018-05-26T06:48:08.956Z,80.00
2018-05-26T06:52:02.322Z,79.90
2018-05-26T06:55:55.489Z,79.20
2018-05-26T06:59:48.742Z,78.30
2018-05-26T07:03:41.891Z,78.60
2018-05-26T07:07:35.885Z,77.90
2018-05-26T07:11:31.989Z,77.20
2018-05-26T07:15:25.795Z,77.10
2018-05-26T07:19:19.909Z,75.60
2018-05-26T07:23:13.215Z,75.50
2018-05-26T07:27:06.483Z,75.50
2018-05-26T07:30:59.838Z,75.30
2018-05-26T07:34:53.810Z,74.90
2018-05-26T07:38:47.903Z,74.10
2018-05-26T07:42:41.126Z,74.10
2018-05-26T07:46:36.001Z,73.70
2018-05-26T07:50:32.718Z,73.20
2018-05-26T07:54:26.348Z,73.20
2018-05-26T07:58:19.914Z,73.60
2018-05-26T08:06:20.358Z,73.00
2018-05-26T08:10:13.546Z,72.50
2018-05-26T08:14:08.716Z,71.90
2018-05-26T08:18:02.555Z,71.40
2018-05-26T08:21:55.887Z,69.60
2018-05-26T08:25:49.154Z,69.50
2018-05-26T08:29:43.160Z,70.20
2018-05-26T08:33:36.410Z,69.60
2018-05-26T08:37:32.275Z,69.40
2018-05-26T08:41:25.512Z,69.40
2018-05-26T08:45:19.492Z,68.30
2018-05-26T08:49:13.383Z,68.60
2018-05-26T08:53:06.329Z,67.80
2018-05-26T08:56:59.518Z,67.70
2018-05-26T09:00:52.731Z,65.70
2018-05-26T09:04:46.989Z,65.60
2018-05-26T09:08:40.279Z,65.60
2018-05-26T09:12:33.597Z,63.40
2018-05-26T09:16:26.864Z,62.50
2018-05-26T09:20:20.160Z,61.20
2018-05-26T09:24:13.320Z,58.90
2018-05-26T09:28:07.083Z,57.90
2018-05-26T09:32:01.134Z,59.30
2018-05-26T09:35:54.270Z,59.20
2018-05-26T09:39:47.491Z,58.70
2018-05-26T09:43:40.749Z,57.60
2018-05-26T09:47:35.021Z,58.30
2018-05-26T09:51:27.985Z,58.20
2018-05-26T09:55:21.754Z,57.70
2018-05-26T09:59:15.575Z,57.00
2018-05-26T10:03:09.065Z,54.60
2018-05-26T10:07:02.443Z,55.30
2018-05-26T10:10:55.701Z,56.40
2018-05-26T10:14:48.807Z,54.70
2018-05-26T10:18:41.976Z,54.50
2018-05-26T10:22:35.483Z,55.10
2018-05-26T10:26:29.352Z,54.80
2018-05-26T10:30:22.631Z,54.10
2018-05-26T10:34:16.156Z,52.10
2018-05-26T10:38:09.786Z,52.90
2018-05-26T10:42:02.880Z,51.90
2018-05-26T10:46:08.305Z,51.40
2018-05-26T10:50:01.914Z,50.10
2018-05-26T10:53:54.817Z,50.30
2018-05-26T10:57:48.799Z,50.90
2018-05-26T11:01:42.680Z,49.90
2018-05-26T11:05:36.643Z,49.00
2018-05-26T11:09:30.561Z,49.00
2018-05-26T11:13:24.546Z,47.20
2018-05-26T11:17:18.495Z,47.90
2018-05-26T11:21:11.608Z,47.90
2018-05-26T11:25:05.704Z,48.00
2018-05-26T11:28:58.962Z,48.00
2018-05-26T11:32:52.233Z,47.60
2018-05-26T11:36:46.382Z,46.90
2018-05-26T11:40:39.795Z,47.00
2018-05-26T11:44:33.679Z,45.10
2018-05-26T11:48:27.007Z,44.70
2018-05-26T11:52:20.717Z,44.00
2018-05-26T11:56:13.822Z,44.00
2018-05-26T12:00:07.629Z,44.00
2018-05-26T12:04:01.993Z,42.80
2018-05-26T12:07:55.187Z,42.80
2018-05-26T12:11:52.695Z,42.90
2018-05-26T12:15:48.220Z,43.10
2018-05-26T12:19:43.839Z,42.60
2018-05-26T12:23:37.006Z,42.20
2018-05-26T12:27:30.856Z,42.00
2018-05-26T12:31:26.662Z,41.20
2018-05-26T12:35:21.880Z,39.90
2018-05-26T12:39:15.315Z,40.40
2018-05-26T12:43:09.072Z,41.20
2018-05-26T12:47:02.259Z,43.00
2018-05-26T12:50:55.397Z,41.10
2018-05-26T12:54:48.745Z,40.00
2018-05-26T12:58:43.375Z,39.10
2018-05-26T13:02:37.241Z,39.20
2018-05-26T13:06:30.737Z,39.80
2018-05-26T13:10:24.078Z,39.60
2018-05-26T13:14:24.870Z,40.50
2018-05-26T13:18:23.959Z,40.50
2018-05-26T13:22:18.509Z,40.80
2018-05-26T13:26:16.300Z,40.00
2018-05-26T13:30:11.752Z,39.90
2018-05-26T13:34:05.379Z,40.30
2018-05-26T13:38:02.024Z,38.90
2018-05-26T13:41:57.851Z,37.90
2018-05-26T13:45:51.548Z,37.90
2018-05-26T13:49:44.681Z,37.50
2018-05-26T13:53:37.990Z,38.60
2018-05-26T13:57:35.167Z,39.40
2018-05-26T14:01:28.845Z,40.70
2018-05-26T14:05:22.021Z,39.90
2018-05-26T14:09:15.574Z,38.60
2018-05-26T14:13:09.768Z,39.20
2018-05-26T14:17:03.575Z,40.20
2018-05-26T14:20:59.002Z,40.10
2018-05-26T14:24:52.481Z,40.10
2018-05-26T14:28:46.004Z,40.00
2018-05-26T14:32:39.249Z,40.10
2018-05-26T14:36:33.460Z,40.00
2018-05-26T14:40:26.635Z,40.00
2018-05-26T14:44:19.983Z,40.40
2018-05-26T14:48:14.599Z,41.20
2018-05-26T14:52:08.179Z,41.80
2018-05-26T14:56:01.615Z,42.20
2018-05-26T14:59:55.472Z,41.70
2018-05-26T15:03:48.707Z,41.60
2018-05-26T15:07:41.920Z,42.00
2018-05-26T15:11:35.896Z,41.50
2018-05-26T15:15:29.891Z,41.10
2018-05-26T15:19:23.862Z,40.70
2018-05-26T15:23:17.439Z,40.50
2018-05-26T15:27:10.765Z,39.80
2018-05-26T15:31:04.077Z,39.00
2018-05-26T15:34:58.067Z,38.10
2018-05-26T15:38:51.216Z,38.10
2018-05-26T15:42:45.628Z,38.40
2018-05-26T15:46:38.943Z,38.40
2018-05-26T15:50:36.849Z,38.60
2018-05-26T15:54:29.903Z,39.00
2018-05-26T15:58:23.108Z,38.60
2018-05-26T16:02:16.355Z,39.00
2018-05-26T16:06:10.011Z,39.10
2018-05-26T16:10:03.209Z,39.20
2018-05-26T16:13:57.604Z,39.50
2018-05-26T16:17:51.572Z,39.60
2018-05-26T16:21:45.413Z,39.60
2018-05-26T16:25:42.487Z,39.80
2018-05-26T16:29:35.881Z,39.40
2018-05-26T16:33:28.650Z,39.40
2018-05-26T16:37:22.252Z,39.30
2018-05-26T16:41:20.849Z,39.20
2018-05-26T16:45:14.106Z,39.80
2018-05-26T16:49:08.168Z,39.90
2018-05-26T16:53:02.396Z,40.30
2018-05-26T16:56:58.097Z,40.60
2018-05-26T17:00:51.242Z,40.30
2018-05-26T17:04:45.188Z,40.40
2018-05-26T17:08:38.275Z,40.30
2018-05-26T17:12:32.313Z,39.20
2018-05-26T17:16:25.482Z,40.30
2018-05-26T17:20:18.882Z,39.90
2018-05-26T17:24:12.017Z,40.00
2018-05-26T17:28:05.387Z,40.10
2018-05-26T17:31:59.506Z,40.50
2018-05-26T17:35:52.629Z,40.40
2018-05-26T17:39:45.837Z,40.90
2018-05-26T17:43:39.180Z,41.10
2018-05-26T17:47:33.292Z,41.80
2018-05-26T17:51:26.568Z,41.80
2018-05-26T17:55:19.621Z,41.70
2018-05-26T17:59:13.727Z,41.90
2018-05-26T18:03:06.874Z,42.20
2018-05-26T18:07:00.100Z,42.50
2018-05-26T18:10:53.146Z,42.40
2018-05-26T18:14:46.489Z,42.40
2018-05-26T18:18:39.699Z,42.80
2018-05-26T18:22:32.862Z,42.70
2018-05-26T18:26:26.013Z,42.90
2018-05-26T18:30:20.137Z,42.70
2018-05-26T18:34:14.321Z,43.00
2018-05-26T18:38:07.507Z,42.80
2018-05-26T18:42:00.683Z,43.00
2018-05-26T18:45:54.067Z,43.10
2018-05-26T18:49:47.169Z,43.40
2018-05-26T18:53:40.068Z,43.50
2018-05-26T18:57:33.218Z,43.50
2018-05-26T19:01:26.584Z,43.50
2018-05-26T19:05:19.957Z,43.80
2018-05-26T19:09:13.148Z,43.90
2018-05-26T19:13:06.304Z,44.10
2018-05-26T19:17:00.356Z,44.20
2018-05-26T19:20:53.642Z,44.50
2018-05-26T19:24:47.704Z,44.40
2018-05-26T19:28:40.828Z,44.40
2018-05-26T19:32:34.063Z,44.70
2018-05-26T19:36:27.205Z,45.00
2018-05-26T19:40:20.408Z,45.10
2018-05-26T19:44:13.737Z,45.20
2018-05-26T19:48:07.908Z,45.60
2018-05-26T19:52:00.891Z,45.70
2018-05-26T19:55:54.003Z,46.10
2018-05-26T19:59:47.259Z,46.20
2018-05-26T20:03:40.656Z,46.50
2018-05-26T20:07:34.625Z,47.80
2018-05-26T20:11:27.754Z,47.70
2018-05-26T20:15:20.870Z,48.20
2018-05-26T20:19:14.572Z,47.90
2018-05-26T20:23:07.761Z,47.80
2018-05-26T20:27:01.009Z,48.00
2018-05-26T20:30:54.108Z,48.20
2018-05-26T20:34:47.333Z,48.10
2018-05-26T20:38:40.588Z,48.20
2018-05-26T20:42:34.667Z,48.90
2018-05-26T20:46:28.654Z,49.30
2018-05-26T20:50:22.791Z,49.60
2018-05-26T20:54:16.325Z,49.20
2018-05-26T20:58:10.210Z,49.80
2018-05-26T21:02:03.644Z,50.10
2018-05-26T21:05:57.080Z,50.30
2018-05-26T21:09:50.303Z,51.20
2018-05-26T21:13:44.094Z,51.20
2018-05-26T21:17:38.043Z,52.00
2018-05-26T21:21:31.167Z,51.90
2018-05-26T21:25:24.352Z,52.20
2018-05-26T21:29:19.200Z,52.80
2018-05-26T21:33:13.071Z,53.40
2018-05-26T21:37:06.304Z,53.40
2018-05-26T21:40:59.547Z,53.60
2018-05-26T21:44:52.739Z,53.90
2018-05-26T21:48:46.120Z,54.30
2018-05-26T21:52:39.131Z,54.40
2018-05-26T21:56:33.035Z,55.30
2018-05-26T22:00:26.174Z,55.30
2018-05-26T22:04:19.302Z,55.50
2018-05-26T22:08:12.506Z,56.10
2018-05-26T22:12:05.660Z,56.60
2018-05-26T22:15:58.886Z,56.90
2018-05-26T22:19:56.654Z,57.10
2018-05-26T22:23:50.071Z,57.60
2018-05-26T22:27:43.374Z,57.90
2018-05-26T22:31:36.522Z,58.10
2018-05-26T22:35:29.650Z,58.40
2018-05-26T22:39:22.960Z,58.60
2018-05-26T22:43:17.269Z,59.20
2018-05-26T22:47:10.408Z,59.10
2018-05-26T22:51:03.528Z,59.70
2018-05-26T22:54:56.443Z,60.00
2018-05-26T22:58:49.570Z,59.30
2018-05-26T23:02:42.763Z,60.30
2018-05-26T23:06:36.032Z,60.90
2018-05-26T23:10:29.317Z,61.40
2018-05-26T23:14:22.472Z,61.40
2018-05-26T23:18:15.558Z,61.70
2018-05-26T23:22:08.666Z,61.80
2018-05-26T23:26:02.027Z,62.20
2018-05-26T23:30:01.336Z,63.00
2018-05-26T23:33:54.897Z,62.90
2018-05-26T23:37:48.937Z,63.40
2018-05-26T23:41:42.094Z,63.40
2018-05-26T23:45:35.327Z,63.30
2018-05-26T23:49:29.174Z,63.60
2018-05-26T23:53:22.108Z,63.50
2018-05-26T23:57:15.211Z,64.10
